sensor_id;sensor_type;location;lat;lon;timestamp;pressure;altitude;pressure_sealevel;temperature;humidity
8451;BME280;4262;50.980;13.892;2024-02-26T00:01:05;87006.69;;;-142.97;58.55
8451;BME280;4262;50.980;13.892;2024-02-26T00:03:33;86912.09;;;-142.97;57.31
8451;BME280;4262;50.980;13.892;2024-02-26T00:06:01;86996.81;;;-142.97;58.10
8451;BME280;4262;50.980;13.892;2024-02-26T00:08:29;87071.72;;;-142.97;59.43
8451;BME280;4262;50.980;13.892;2024-02-26T00:10:55;87120.97;;;-142.97;60.28
8451;BME280;4262;50.980;13.892;2024-02-26T00:13:22;87134.78;;;-142.97;60.74
8451;BME280;4262;50.980;13.892;2024-02-26T00:15:49;87193.91;;;-142.97;62.48
8451;BME280;4262;50.980;13.892;2024-02-26T00:18:15;87327.91;;;-142.97;62.68
8451;BME280;4262;50.980;13.892;2024-02-26T00:20:43;87363.41;;;-142.97;62.86
8451;BME280;4262;50.980;13.892;2024-02-26T00:23:10;87436.31;;;-142.97;63.88
8451;BME280;4262;50.980;13.892;2024-02-26T00:25:37;87491.50;;;-142.97;64.28
8451;BME280;4262;50.980;13.892;2024-02-26T00:28:04;87436.31;;;-142.97;63.66
8451;BME280;4262;50.980;13.892;2024-02-26T00:30:31;87465.88;;;-142.97;63.97
8451;BME280;4262;50.980;13.892;2024-02-26T00:32:58;87270.75;;;-142.97;62.69
8451;BME280;4262;50.980;13.892;2024-02-26T00:35:25;87119.00;;;-142.97;61.40
8451;BME280;4262;50.980;13.892;2024-02-26T00:37:53;87124.91;;;-142.97;61.27
8451;BME280;4262;50.980;13.892;2024-02-26T00:40:20;87048.06;;;-142.97;60.32
8451;BME280;4262;50.980;13.892;2024-02-26T00:42:46;87172.22;;;-142.97;60.85
8451;BME280;4262;50.980;13.892;2024-02-26T00:45:13;87024.41;;;-142.97;59.78
8451;BME280;4262;50.980;13.892;2024-02-26T00:47:42;87085.50;;;-142.97;60.59
8451;BME280;4262;50.980;13.892;2024-02-26T00:50:10;87073.69;;;-142.97;61.13
8451;BME280;4262;50.980;13.892;2024-02-26T00:52:37;87055.94;;;-142.97;60.59
8451;BME280;4262;50.980;13.892;2024-02-26T00:55:07;87067.78;;;-142.97;59.77
8451;BME280;4262;50.980;13.892;2024-02-26T00:57:37;87111.13;;;-142.97;61.05
8451;BME280;4262;50.980;13.892;2024-02-26T01:00:05;87130.84;;;-142.97;61.70
8451;BME280;4262;50.980;13.892;2024-02-26T01:02:34;87162.38;;;-142.97;61.85
8451;BME280;4262;50.980;13.892;2024-02-26T01:05:01;87154.47;;;-142.97;61.43
8451;BME280;4262;50.980;13.892;2024-02-26T01:07:28;87134.78;;;-142.97;61.26
8451;BME280;4262;50.980;13.892;2024-02-26T01:09:58;87132.81;;;-142.97;62.01
8451;BME280;4262;50.980;13.892;2024-02-26T01:12:27;87237.25;;;-142.97;62.44
8451;BME280;4262;50.980;13.892;2024-02-26T01:14:53;87201.78;;;-142.97;62.64
8451;BME280;4262;50.980;13.892;2024-02-26T01:17:20;87148.56;;;-142.97;61.73
8451;BME280;4262;50.980;13.892;2024-02-26T01:19:47;87170.25;;;-142.97;61.45
8451;BME280;4262;50.980;13.892;2024-02-26T01:22:14;87184.03;;;-142.97;61.99
8451;BME280;4262;50.980;13.892;2024-02-26T01:24:41;87221.50;;;-142.97;62.35
8451;BME280;4262;50.980;13.892;2024-02-26T01:27:08;87288.50;;;-142.97;61.90
8451;BME280;4262;50.980;13.892;2024-02-26T01:29:36;87170.25;;;-142.97;61.44
8451;BME280;4262;50.980;13.892;2024-02-26T01:32:03;87191.94;;;-142.97;62.05
8451;BME280;4262;50.980;13.892;2024-02-26T01:34:31;87207.69;;;-142.97;62.44
8451;BME280;4262;50.980;13.892;2024-02-26T01:36:58;87148.56;;;-142.97;61.51
8451;BME280;4262;50.980;13.892;2024-02-26T01:39:25;87120.97;;;-142.97;61.00
8451;BME280;4262;50.980;13.892;2024-02-26T01:41:53;87122.94;;;-142.97;60.94
8451;BME280;4262;50.980;13.892;2024-02-26T01:44:20;87164.34;;;-142.97;61.48
8451;BME280;4262;50.980;13.892;2024-02-26T01:46:48;87105.22;;;-142.97;61.09
8451;BME280;4262;50.980;13.892;2024-02-26T01:49:15;87105.22;;;-142.97;60.94
8451;BME280;4262;50.980;13.892;2024-02-26T01:51:43;87113.09;;;-142.97;61.06
8451;BME280;4262;50.980;13.892;2024-02-26T01:54:13;87146.59;;;-142.97;61.35
8451;BME280;4262;50.980;13.892;2024-02-26T01:56:43;87205.72;;;-142.97;61.89
8451;BME280;4262;50.980;13.892;2024-02-26T01:59:10;87211.63;;;-142.97;62.30
8451;BME280;4262;50.980;13.892;2024-02-26T02:01:38;87207.69;;;-142.97;62.07
8451;BME280;4262;50.980;13.892;2024-02-26T02:04:08;87239.22;;;-142.97;62.64
8451;BME280;4262;50.980;13.892;2024-02-26T02:06:35;87193.91;;;-142.97;62.20
8451;BME280;4262;50.980;13.892;2024-02-26T02:09:02;87158.44;;;-142.97;61.97
8451;BME280;4262;50.980;13.892;2024-02-26T02:11:32;87191.94;;;-142.97;61.75
8451;BME280;4262;50.980;13.892;2024-02-26T02:13:59;87166.31;;;-142.97;61.55
8451;BME280;4262;50.980;13.892;2024-02-26T02:16:26;87191.94;;;-142.97;61.65
8451;BME280;4262;50.980;13.892;2024-02-26T02:18:53;87221.50;;;-142.97;62.25
8451;BME280;4262;50.980;13.892;2024-02-26T02:21:21;87213.59;;;-142.97;62.28
8451;BME280;4262;50.980;13.892;2024-02-26T02:23:48;87223.47;;;-142.97;62.66
8451;BME280;4262;50.980;13.892;2024-02-26T02:26:15;87221.50;;;-142.97;62.43
8451;BME280;4262;50.980;13.892;2024-02-26T02:28:43;87201.78;;;-142.97;62.55
8451;BME280;4262;50.980;13.892;2024-02-26T02:31:10;87188.00;;;-142.97;62.86
8451;BME280;4262;50.980;13.892;2024-02-26T02:33:37;87251.06;;;-142.97;62.65
8451;BME280;4262;50.980;13.892;2024-02-26T02:36:05;87207.69;;;-142.97;62.04
8451;BME280;4262;50.980;13.892;2024-02-26T02:38:37;87154.47;;;-142.97;61.91
8451;BME280;4262;50.980;13.892;2024-02-26T02:41:04;87087.47;;;-142.97;61.08
8451;BME280;4262;50.980;13.892;2024-02-26T02:43:30;87085.50;;;-142.97;60.67
8451;BME280;4262;50.980;13.892;2024-02-26T02:45:57;87205.72;;;-142.97;61.25
8451;BME280;4262;50.980;13.892;2024-02-26T02:48:24;87166.31;;;-142.97;62.04
8451;BME280;4262;50.980;13.892;2024-02-26T02:50:52;87284.56;;;-142.97;62.91
8451;BME280;4262;50.980;13.892;2024-02-26T02:53:18;87280.63;;;-142.97;63.19
8451;BME280;4262;50.980;13.892;2024-02-26T02:55:46;87255.00;;;-142.97;62.79
8451;BME280;4262;50.980;13.892;2024-02-26T02:58:14;87290.47;;;-142.97;63.09
8451;BME280;4262;50.980;13.892;2024-02-26T03:00:40;87298.34;;;-142.97;63.25
8451;BME280;4262;50.980;13.892;2024-02-26T03:03:07;87284.56;;;-142.97;63.20
8451;BME280;4262;50.980;13.892;2024-02-26T03:05:34;87256.97;;;-142.97;62.91
8451;BME280;4262;50.980;13.892;2024-02-26T03:08:01;87255.00;;;-142.97;62.56
8451;BME280;4262;50.980;13.892;2024-02-26T03:10:28;87207.69;;;-142.97;62.60
8451;BME280;4262;50.980;13.892;2024-02-26T03:12:56;87262.88;;;-142.97;62.67
8451;BME280;4262;50.980;13.892;2024-02-26T03:15:23;87247.13;;;-142.97;63.13
8451;BME280;4262;50.980;13.892;2024-02-26T03:17:50;87217.56;;;-142.97;62.36
8451;BME280;4262;50.980;13.892;2024-02-26T03:20:16;87215.56;;;-142.97;62.40
8451;BME280;4262;50.980;13.892;2024-02-26T03:22:45;87280.63;;;-142.97;62.89
8451;BME280;4262;50.980;13.892;2024-02-26T03:25:12;87322.00;;;-142.97;63.22
8451;BME280;4262;50.980;13.892;2024-02-26T03:27:38;87316.09;;;-142.97;63.32
8451;BME280;4262;50.980;13.892;2024-02-26T03:30:08;87308.22;;;-142.97;63.53
8451;BME280;4262;50.980;13.892;2024-02-26T03:32:35;87308.22;;;-142.97;63.15
8451;BME280;4262;50.980;13.892;2024-02-26T03:35:02;87353.53;;;-142.97;63.37
8451;BME280;4262;50.980;13.892;2024-02-26T03:37:29;87318.06;;;-142.97;63.44
8451;BME280;4262;50.980;13.892;2024-02-26T03:39:56;87276.69;;;-142.97;62.79
8451;BME280;4262;50.980;13.892;2024-02-26T03:42:23;87278.66;;;-142.97;62.78
8451;BME280;4262;50.980;13.892;2024-02-26T03:44:50;87320.03;;;-142.97;63.04
8451;BME280;4262;50.980;13.892;2024-02-26T03:47:18;87280.63;;;-142.97;63.27
8451;BME280;4262;50.980;13.892;2024-02-26T03:49:48;87276.69;;;-142.97;63.08
8451;BME280;4262;50.980;13.892;2024-02-26T03:52:14;87355.50;;;-142.97;63.18
8451;BME280;4262;50.980;13.892;2024-02-26T03:54:41;87231.34;;;-142.97;62.43
8451;BME280;4262;50.980;13.892;2024-02-26T03:57:08;87174.19;;;-142.97;61.93
8451;BME280;4262;50.980;13.892;2024-02-26T03:59:35;87176.16;;;-142.97;61.63
8451;BME280;4262;50.980;13.892;2024-02-26T04:02:03;87144.63;;;-142.97;60.95
8451;BME280;4262;50.980;13.892;2024-02-26T04:04:35;87201.78;;;-142.97;62.14
8451;BME280;4262;50.980;13.892;2024-02-26T04:07:02;87207.69;;;-142.97;61.73
8451;BME280;4262;50.980;13.892;2024-02-26T04:09:33;87237.25;;;-142.97;62.29
8451;BME280;4262;50.980;13.892;2024-02-26T04:12:01;87217.56;;;-142.97;61.86
8451;BME280;4262;50.980;13.892;2024-02-26T04:14:27;87211.63;;;-142.97;62.08
8451;BME280;4262;50.980;13.892;2024-02-26T04:16:54;87239.22;;;-142.97;61.95
8451;BME280;4262;50.980;13.892;2024-02-26T04:19:21;87193.91;;;-142.97;61.88
8451;BME280;4262;50.980;13.892;2024-02-26T04:21:50;87209.66;;;-142.97;62.26
8451;BME280;4262;50.980;13.892;2024-02-26T04:24:17;87152.50;;;-142.97;61.32
8451;BME280;4262;50.980;13.892;2024-02-26T04:26:43;87128.88;;;-142.97;61.65
8451;BME280;4262;50.980;13.892;2024-02-26T04:29:10;87199.81;;;-142.97;62.04
8451;BME280;4262;50.980;13.892;2024-02-26T04:31:37;87243.16;;;-142.97;62.07
8451;BME280;4262;50.980;13.892;2024-02-26T04:34:05;87225.44;;;-142.97;62.43
8451;BME280;4262;50.980;13.892;2024-02-26T04:36:32;87233.31;;;-142.97;62.55
8451;BME280;4262;50.980;13.892;2024-02-26T04:39:00;87243.16;;;-142.97;62.74
8451;BME280;4262;50.980;13.892;2024-02-26T04:41:27;87182.06;;;-142.97;62.05
8451;BME280;4262;50.980;13.892;2024-02-26T04:43:56;87176.16;;;-142.97;61.70
8451;BME280;4262;50.980;13.892;2024-02-26T04:46:22;87229.38;;;-142.97;62.32
8451;BME280;4262;50.980;13.892;2024-02-26T04:48:49;87253.03;;;-142.97;62.09
8451;BME280;4262;50.980;13.892;2024-02-26T04:51:16;87235.28;;;-142.97;62.78
8451;BME280;4262;50.980;13.892;2024-02-26T04:53:43;87239.22;;;-142.97;62.16
8451;BME280;4262;50.980;13.892;2024-02-26T04:56:11;87282.59;;;-142.97;62.79
8451;BME280;4262;50.980;13.892;2024-02-26T04:58:37;87323.97;;;-142.97;62.99
8451;BME280;4262;50.980;13.892;2024-02-26T05:01:07;87312.16;;;-142.97;63.04
8451;BME280;4262;50.980;13.892;2024-02-26T05:03:35;87347.63;;;-142.97;63.03
8451;BME280;4262;50.980;13.892;2024-02-26T05:06:02;87398.88;;;-142.97;63.74
8451;BME280;4262;50.980;13.892;2024-02-26T05:08:29;87331.84;;;-142.97;63.20
8451;BME280;4262;50.980;13.892;2024-02-26T05:10:56;87377.19;;;-142.97;63.64
8451;BME280;4262;50.980;13.892;2024-02-26T05:13:24;87310.19;;;-142.97;63.30
8451;BME280;4262;50.980;13.892;2024-02-26T05:15:51;87471.78;;;-142.97;63.22
8451;BME280;4262;50.980;13.892;2024-02-26T05:18:18;87375.22;;;-142.97;63.61
8451;BME280;4262;50.980;13.892;2024-02-26T05:20:45;87406.75;;;-142.97;63.72
8451;BME280;4262;50.980;13.892;2024-02-26T05:23:11;87320.03;;;-142.97;62.94
8451;BME280;4262;50.980;13.892;2024-02-26T05:25:38;87337.78;;;-142.97;63.76
8451;BME280;4262;50.980;13.892;2024-02-26T05:28:06;87377.19;;;-142.97;63.56
8451;BME280;4262;50.980;13.892;2024-02-26T05:30:33;87312.16;;;-142.97;63.07
8451;BME280;4262;50.980;13.892;2024-02-26T05:33:00;87337.78;;;-142.97;63.59
8451;BME280;4262;50.980;13.892;2024-02-26T05:35:27;87300.31;;;-142.97;62.86
8451;BME280;4262;50.980;13.892;2024-02-26T05:37:54;87304.25;;;-142.97;62.69
8451;BME280;4262;50.980;13.892;2024-02-26T05:40:21;87302.28;;;-142.97;63.11
8451;BME280;4262;50.980;13.892;2024-02-26T05:42:47;87337.78;;;-142.97;62.65
8451;BME280;4262;50.980;13.892;2024-02-26T05:45:15;87255.00;;;-142.97;62.17
8451;BME280;4262;50.980;13.892;2024-02-26T05:47:43;87290.47;;;-142.97;63.06
8451;BME280;4262;50.980;13.892;2024-02-26T05:50:10;87288.50;;;-142.97;62.85
8451;BME280;4262;50.980;13.892;2024-02-26T05:52:38;87292.44;;;-142.97;62.92
8451;BME280;4262;50.980;13.892;2024-02-26T05:55:05;87337.78;;;-142.97;63.13
8451;BME280;4262;50.980;13.892;2024-02-26T05:57:33;87325.94;;;-142.97;63.68
8451;BME280;4262;50.980;13.892;2024-02-26T06:00:00;87316.09;;;-142.97;63.32
8451;BME280;4262;50.980;13.892;2024-02-26T06:02:36;87260.91;;;-142.97;62.69
8451;BME280;4262;50.980;13.892;2024-02-26T06:05:05;87241.19;;;-142.97;61.95
8451;BME280;4262;50.980;13.892;2024-02-26T06:07:34;87258.94;;;-142.97;62.33
8451;BME280;4262;50.980;13.892;2024-02-26T06:10:01;87266.81;;;-142.97;62.39
8451;BME280;4262;50.980;13.892;2024-02-26T06:12:30;87249.09;;;-142.97;62.03
8451;BME280;4262;50.980;13.892;2024-02-26T06:14:58;87256.97;;;-142.97;62.86
8451;BME280;4262;50.980;13.892;2024-02-26T06:17:26;87207.69;;;-142.97;62.61
8451;BME280;4262;50.980;13.892;2024-02-26T06:19:53;87221.50;;;-142.97;62.82
8451;BME280;4262;50.980;13.892;2024-02-26T06:22:21;87193.91;;;-142.97;62.21
8451;BME280;4262;50.980;13.892;2024-02-26T06:24:48;87144.63;;;-142.97;61.34
8451;BME280;4262;50.980;13.892;2024-02-26T06:27:15;87146.59;;;-142.97;61.49
8451;BME280;4262;50.980;13.892;2024-02-26T06:29:42;87073.69;;;-142.97;60.54
8451;BME280;4262;50.980;13.892;2024-02-26T06:32:08;87065.78;;;-142.97;60.39
8451;BME280;4262;50.980;13.892;2024-02-26T06:34:36;87061.84;;;-142.97;60.58
8451;BME280;4262;50.980;13.892;2024-02-26T06:37:04;87081.56;;;-142.97;60.95
8451;BME280;4262;50.980;13.892;2024-02-26T06:39:32;87128.88;;;-142.97;61.10
8451;BME280;4262;50.980;13.892;2024-02-26T06:41:58;87053.97;;;-142.97;60.58
8451;BME280;4262;50.980;13.892;2024-02-26T06:44:27;87030.31;;;-142.97;60.67
8451;BME280;4262;50.980;13.892;2024-02-26T06:46:57;87008.66;;;-142.97;59.78
8451;BME280;4262;50.980;13.892;2024-02-26T06:49:24;87148.56;;;-142.97;61.03
8451;BME280;4262;50.980;13.892;2024-02-26T06:51:51;87073.69;;;-142.97;60.73
8451;BME280;4262;50.980;13.892;2024-02-26T06:54:18;87048.06;;;-142.97;61.10
8451;BME280;4262;50.980;13.892;2024-02-26T06:56:46;87081.56;;;-142.97;61.13
8451;BME280;4262;50.980;13.892;2024-02-26T06:59:13;87048.06;;;-142.97;61.34
8451;BME280;4262;50.980;13.892;2024-02-26T07:01:41;87101.28;;;-142.97;61.70
8451;BME280;4262;50.980;13.892;2024-02-26T07:04:08;87026.38;;;-142.97;61.17
8451;BME280;4262;50.980;13.892;2024-02-26T07:06:36;86992.88;;;-142.97;60.79
8451;BME280;4262;50.980;13.892;2024-02-26T07:09:03;86998.78;;;-142.97;61.18
8451;BME280;4262;50.980;13.892;2024-02-26T07:11:30;87028.34;;;-142.97;61.58
8451;BME280;4262;50.980;13.892;2024-02-26T07:13:58;86990.91;;;-142.97;61.13
8451;BME280;4262;50.980;13.892;2024-02-26T07:16:26;86981.06;;;-142.97;61.30
8451;BME280;4262;50.980;13.892;2024-02-26T07:18:53;86975.16;;;-142.97;61.55
8451;BME280;4262;50.980;13.892;2024-02-26T07:21:20;87008.66;;;-142.97;62.07
8451;BME280;4262;50.980;13.892;2024-02-26T07:23:47;87022.44;;;-142.97;61.61
8451;BME280;4262;50.980;13.892;2024-02-26T07:26:13;86951.50;;;-142.97;60.76
8451;BME280;4262;50.980;13.892;2024-02-26T07:28:40;86951.50;;;-142.97;61.09
8451;BME280;4262;50.980;13.892;2024-02-26T07:31:09;86801.72;;;-142.97;61.22
8451;BME280;4262;50.980;13.892;2024-02-26T07:33:35;86896.31;;;-142.97;60.45
8451;BME280;4262;50.980;13.892;2024-02-26T07:36:03;86886.47;;;-142.97;60.29
8451;BME280;4262;50.980;13.892;2024-02-26T07:38:30;86847.06;;;-142.97;59.49
8451;BME280;4262;50.980;13.892;2024-02-26T07:40:56;86933.75;;;-142.97;60.19
8451;BME280;4262;50.980;13.892;2024-02-26T07:43:23;86823.41;;;-142.97;59.97
8451;BME280;4262;50.980;13.892;2024-02-26T07:45:50;86829.31;;;-142.97;59.77
8451;BME280;4262;50.980;13.892;2024-02-26T07:48:18;86839.16;;;-142.97;60.53
8451;BME280;4262;50.980;13.892;2024-02-26T07:50:45;86831.28;;;-142.97;60.47
8451;BME280;4262;50.980;13.892;2024-02-26T07:53:11;86784.00;;;-142.97;60.54
8451;BME280;4262;50.980;13.892;2024-02-26T07:55:38;86632.25;;;-142.97;60.38
8451;BME280;4262;50.980;13.892;2024-02-26T07:58:05;86401.72;;;-142.97;57.61
8451;BME280;4262;50.980;13.892;2024-02-26T08:00:32;86167.25;;;-142.97;54.75
8451;BME280;4262;50.980;13.892;2024-02-26T08:02:59;85946.59;;;-142.97;53.10
8451;BME280;4262;50.980;13.892;2024-02-26T08:05:27;85861.88;;;-142.97;49.89
8451;BME280;4262;50.980;13.892;2024-02-26T08:07:54;85662.91;;;-142.97;47.73
8451;BME280;4262;50.980;13.892;2024-02-26T08:10:21;85580.19;;;-142.97;46.61
8451;BME280;4262;50.980;13.892;2024-02-26T08:12:48;85530.94;;;-142.97;45.65
8451;BME280;4262;50.980;13.892;2024-02-26T08:15:15;85507.28;;;-142.97;43.95
8451;BME280;4262;50.980;13.892;2024-02-26T08:17:41;85493.50;;;-142.97;44.01
8451;BME280;4262;50.980;13.892;2024-02-26T08:20:09;85306.38;;;-142.97;43.00
8451;BME280;4262;50.980;13.892;2024-02-26T08:22:37;85353.66;;;-142.97;42.23
8451;BME280;4262;50.980;13.892;2024-02-26T08:25:05;85331.97;;;-142.97;42.26
8451;BME280;4262;50.980;13.892;2024-02-26T08:27:34;85414.72;;;-142.97;43.32
8451;BME280;4262;50.980;13.892;2024-02-26T08:30:01;85389.09;;;-142.97;42.83
8451;BME280;4262;50.980;13.892;2024-02-26T08:32:31;85493.50;;;-142.97;42.86
8451;BME280;4262;50.980;13.892;2024-02-26T08:34:58;85855.97;;;-142.97;44.84
8451;BME280;4262;50.980;13.892;2024-02-26T08:37:24;85915.09;;;-142.97;46.16
8451;BME280;4262;50.980;13.892;2024-02-26T08:39:53;85970.25;;;-142.97;46.70
8451;BME280;4262;50.980;13.892;2024-02-26T08:42:20;85956.44;;;-142.97;47.94
8451;BME280;4262;50.980;13.892;2024-02-26T08:44:47;85794.91;;;-142.97;47.00
8451;BME280;4262;50.980;13.892;2024-02-26T08:47:13;85792.94;;;-142.97;46.97
8451;BME280;4262;50.980;13.892;2024-02-26T08:49:42;85694.44;;;-142.97;45.86
8451;BME280;4262;50.980;13.892;2024-02-26T08:52:09;85538.81;;;-142.97;46.92
8451;BME280;4262;50.980;13.892;2024-02-26T08:54:36;85438.34;;;-142.97;46.64
8451;BME280;4262;50.980;13.892;2024-02-26T08:57:04;85462.00;;;-142.97;46.27
8451;BME280;4262;50.980;13.892;2024-02-26T08:59:31;85672.78;;;-142.97;44.18
8451;BME280;4262;50.980;13.892;2024-02-26T09:01:58;85454.13;;;-142.97;44.13
8451;BME280;4262;50.980;13.892;2024-02-26T09:04:24;85292.59;;;-142.97;42.69
8451;BME280;4262;50.980;13.892;2024-02-26T09:06:52;85525.03;;;-142.97;42.77
8451;BME280;4262;50.980;13.892;2024-02-26T09:09:19;85517.16;;;-142.97;42.49
8451;BME280;4262;50.980;13.892;2024-02-26T09:11:47;85398.97;;;-142.97;42.59
8451;BME280;4262;50.980;13.892;2024-02-26T09:14:18;85022.75;;;-142.97;41.18
8451;BME280;4262;50.980;13.892;2024-02-26T09:16:45;85278.81;;;-142.97;41.88
8451;BME280;4262;50.980;13.892;2024-02-26T09:19:13;85266.97;;;-142.97;41.75
8451;BME280;4262;50.980;13.892;2024-02-26T09:21:42;85158.66;;;-142.97;41.87
8451;BME280;4262;50.980;13.892;2024-02-26T09:24:09;84979.41;;;-142.97;40.05
8451;BME280;4262;50.980;13.892;2024-02-26T09:26:36;85300.47;;;-142.97;40.04
8451;BME280;4262;50.980;13.892;2024-02-26T09:29:03;85005.03;;;-142.97;40.46
8451;BME280;4262;50.980;13.892;2024-02-26T09:31:31;85286.69;;;-142.97;40.01
8451;BME280;4262;50.980;13.892;2024-02-26T09:33:59;84979.41;;;-142.97;39.55
8451;BME280;4262;50.980;13.892;2024-02-26T09:36:26;84813.97;;;-142.97;39.50
8451;BME280;4262;50.980;13.892;2024-02-26T09:38:53;84754.91;;;-142.97;37.85
8451;BME280;4262;50.980;13.892;2024-02-26T09:41:20;84670.22;;;-142.97;37.27
8451;BME280;4262;50.980;13.892;2024-02-26T09:43:48;84567.81;;;-142.97;37.10
8451;BME280;4262;50.980;13.892;2024-02-26T09:46:15;84624.91;;;-142.97;36.53
8451;BME280;4262;50.980;13.892;2024-02-26T09:48:47;84469.34;;;-142.97;36.43
8451;BME280;4262;50.980;13.892;2024-02-26T09:51:14;84467.38;;;-142.97;36.10
8451;BME280;4262;50.980;13.892;2024-02-26T09:53:42;84636.72;;;-142.97;36.21
8451;BME280;4262;50.980;13.892;2024-02-26T09:56:11;84516.59;;;-142.97;35.91
8451;BME280;4262;50.980;13.892;2024-02-26T09:58:39;84556.00;;;-142.97;35.81
8451;BME280;4262;50.980;13.892;2024-02-26T10:01:11;84471.31;;;-142.97;35.98
8451;BME280;4262;50.980;13.892;2024-02-26T10:03:38;84349.22;;;-142.97;35.49
8451;BME280;4262;50.980;13.892;2024-02-26T10:06:08;84449.66;;;-142.97;35.19
8451;BME280;4262;50.980;13.892;2024-02-26T10:08:35;84410.25;;;-142.97;35.50
8451;BME280;4262;50.980;13.892;2024-02-26T10:11:03;84327.56;;;-142.97;35.37
8451;BME280;4262;50.980;13.892;2024-02-26T10:13:31;84384.66;;;-142.97;35.74
8451;BME280;4262;50.980;13.892;2024-02-26T10:15:57;84506.75;;;-142.97;35.66
8451;BME280;4262;50.980;13.892;2024-02-26T10:18:25;84321.66;;;-142.97;34.68
8451;BME280;4262;50.980;13.892;2024-02-26T10:21:11;84658.41;;;-142.97;34.62
8451;BME280;4262;50.980;13.892;2024-02-26T10:23:36;84274.41;;;-142.97;34.31
8451;BME280;4262;50.980;13.892;2024-02-26T10:26:03;84128.69;;;-142.97;34.14
8451;BME280;4262;50.980;13.892;2024-02-26T10:28:31;84197.59;;;-142.97;33.92
8451;BME280;4262;50.980;13.892;2024-02-26T10:30:58;84006.59;;;-142.97;33.29
8451;BME280;4262;50.980;13.892;2024-02-26T10:33:24;84089.31;;;-142.97;33.26
8451;BME280;4262;50.980;13.892;2024-02-26T10:35:53;84112.94;;;-142.97;33.23
8451;BME280;4262;50.980;13.892;2024-02-26T10:38:22;84132.63;;;-142.97;33.33
8451;BME280;4262;50.980;13.892;2024-02-26T10:40:49;84246.81;;;-142.97;33.48
8451;BME280;4262;50.980;13.892;2024-02-26T10:43:16;84390.56;;;-142.97;34.65
8451;BME280;4262;50.980;13.892;2024-02-26T10:45:44;84457.53;;;-142.97;34.50
8451;BME280;4262;50.980;13.892;2024-02-26T10:48:13;84337.41;;;-142.97;34.65
8451;BME280;4262;50.980;13.892;2024-02-26T10:50:40;84467.38;;;-142.97;33.68
8451;BME280;4262;50.980;13.892;2024-02-26T10:53:16;84601.28;;;-142.97;34.21
8451;BME280;4262;50.980;13.892;2024-02-26T10:55:48;84343.31;;;-142.97;34.08
8451;BME280;4262;50.980;13.892;2024-02-26T10:58:16;84613.09;;;-142.97;35.08
8451;BME280;4262;50.980;13.892;2024-02-26T11:00:44;84522.50;;;-142.97;35.08
8451;BME280;4262;50.980;13.892;2024-02-26T11:03:13;84573.72;;;-142.97;35.07
8451;BME280;4262;50.980;13.892;2024-02-26T11:05:41;84528.41;;;-142.97;34.59
8451;BME280;4262;50.980;13.892;2024-02-26T11:08:10;84658.41;;;-142.97;35.21
8451;BME280;4262;50.980;13.892;2024-02-26T11:10:36;84713.53;;;-142.97;35.79
8451;BME280;4262;50.980;13.892;2024-02-26T11:13:06;84745.06;;;-142.97;35.65
8451;BME280;4262;50.980;13.892;2024-02-26T11:15:36;84685.97;;;-142.97;35.52
8451;BME280;4262;50.980;13.892;2024-02-26T11:18:04;84705.66;;;-142.97;35.28
8451;BME280;4262;50.980;13.892;2024-02-26T11:20:32;84691.88;;;-142.97;35.19
8451;BME280;4262;50.980;13.892;2024-02-26T11:22:59;84802.16;;;-142.97;35.42
8451;BME280;4262;50.980;13.892;2024-02-26T11:25:26;84784.44;;;-142.97;35.29
8451;BME280;4262;50.980;13.892;2024-02-26T11:27:55;84884.88;;;-142.97;35.64
8451;BME280;4262;50.980;13.892;2024-02-26T11:30:26;84786.41;;;-142.97;36.17
8451;BME280;4262;50.980;13.892;2024-02-26T11:32:56;84658.41;;;-142.97;35.40
8451;BME280;4262;50.980;13.892;2024-02-26T11:35:24;84743.09;;;-142.97;35.09
8451;BME280;4262;50.980;13.892;2024-02-26T11:37:52;84812.00;;;-142.97;35.91
8451;BME280;4262;50.980;13.892;2024-02-26T11:40:20;84947.91;;;-142.97;35.67
8451;BME280;4262;50.980;13.892;2024-02-26T11:42:48;84869.13;;;-142.97;35.91
8451;BME280;4262;50.980;13.892;2024-02-26T11:45:51;84747.03;;;-142.97;35.71
8451;BME280;4262;50.980;13.892;2024-02-26T11:48:25;84557.97;;;-142.97;35.48
8451;BME280;4262;50.980;13.892;2024-02-26T11:50:53;84542.22;;;-142.97;34.31
8451;BME280;4262;50.980;13.892;2024-02-26T11:53:24;84542.22;;;-142.97;34.41
8451;BME280;4262;50.980;13.892;2024-02-26T11:56:13;84703.69;;;-142.97;34.83
8451;BME280;4262;50.980;13.892;2024-02-26T11:58:40;84713.53;;;-142.97;34.35
8451;BME280;4262;50.980;13.892;2024-02-26T12:01:41;84859.28;;;-142.97;34.49
8451;BME280;4262;50.980;13.892;2024-02-26T12:04:13;84867.16;;;-142.97;35.10
8451;BME280;4262;50.980;13.892;2024-02-26T12:06:46;84947.91;;;-142.97;35.37
8451;BME280;4262;50.980;13.892;2024-02-26T12:09:13;84985.31;;;-142.97;35.54
8451;BME280;4262;50.980;13.892;2024-02-26T12:11:41;84967.59;;;-142.97;35.37
8451;BME280;4262;50.980;13.892;2024-02-26T12:14:09;84940.03;;;-142.97;35.35
8451;BME280;4262;50.980;13.892;2024-02-26T12:16:37;85062.13;;;-142.97;36.22
8451;BME280;4262;50.980;13.892;2024-02-26T12:19:06;85113.34;;;-142.97;35.58
8451;BME280;4262;50.980;13.892;2024-02-26T12:21:34;85345.78;;;-142.97;36.56
8451;BME280;4262;50.980;13.892;2024-02-26T12:24:12;85294.56;;;-142.97;36.81
8451;BME280;4262;50.980;13.892;2024-02-26T12:26:39;85276.84;;;-142.97;37.16
8451;BME280;4262;50.980;13.892;2024-02-26T12:29:06;85302.44;;;-142.97;36.99
8451;BME280;4262;50.980;13.892;2024-02-26T12:31:33;85259.09;;;-142.97;37.38
8451;BME280;4262;50.980;13.892;2024-02-26T12:34:02;85294.56;;;-142.97;37.23
8451;BME280;4262;50.980;13.892;2024-02-26T12:36:31;85278.81;;;-142.97;37.24
8451;BME280;4262;50.980;13.892;2024-02-26T12:38:58;85365.47;;;-142.97;37.54
8451;BME280;4262;50.980;13.892;2024-02-26T12:41:26;85432.44;;;-142.97;38.03
8451;BME280;4262;50.980;13.892;2024-02-26T12:43:53;85467.91;;;-142.97;37.79
8451;BME280;4262;50.980;13.892;2024-02-26T12:46:20;85558.50;;;-142.97;37.94
8451;BME280;4262;50.980;13.892;2024-02-26T12:48:47;85475.78;;;-142.97;38.15
8451;BME280;4262;50.980;13.892;2024-02-26T12:51:15;85487.59;;;-142.97;38.04
8451;BME280;4262;50.980;13.892;2024-02-26T12:53:45;85523.06;;;-142.97;38.55